sensor_id;sensor_type;location;lat;lon;timestamp;temperature;humidity
21918;DHT22;11123;49.882;8.662;2022-09-30T00:00:01;8.70;99.90
21918;DHT22;11123;49.882;8.662;2022-09-30T00:02:36;8.70;99.90
21918;DHT22;11123;49.882;8.662;2022-09-30T00:05:05;8.60;99.90
21918;DHT22;11123;49.882;8.662;2022-09-30T00:07:33;8.60;99.90
21918;DHT22;11123;49.882;8.662;2022-09-30T00:10:02;8.70;99.90
21918;DHT22;11123;49.882;8.662;2022-09-30T00:12:30;8.70;99.90
21918;DHT22;11123;49.882;8.662;2022-09-30T00:14:59;8.80;99.90
21918;DHT22;11123;49.882;8.662;2022-09-30T00:17:28;8.70;99.90
21918;DHT22;11123;49.882;8.662;2022-09-30T00:19:57;8.70;99.90
21918;DHT22;11123;49.882;8.662;2022-09-30T00:22:26;8.60;99.90
21918;DHT22;11123;49.882;8.662;2022-09-30T00:24:54;8.60;99.90
21918;DHT22;11123;49.882;8.662;2022-09-30T00:27:22;8.60;99.90
21918;DHT22;11123;49.882;8.662;2022-09-30T00:29:51;8.60;99.90
21918;DHT22;11123;49.882;8.662;2022-09-30T00:32:19;8.60;99.90
21918;DHT22;11123;49.882;8.662;2022-09-30T00:34:48;8.70;99.90
21918;DHT22;11123;49.882;8.662;2022-09-30T00:37:17;8.60;99.90
21918;DHT22;11123;49.882;8.662;2022-09-30T00:39:45;8.60;99.90
21918;DHT22;11123;49.882;8.662;2022-09-30T00:42:15;8.60;99.90
21918;DHT22;11123;49.882;8.662;2022-09-30T00:44:51;8.70;99.90
21918;DHT22;11123;49.882;8.662;2022-09-30T00:47:45;8.70;99.90
21918;DHT22;11123;49.882;8.662;2022-09-30T00:50:27;8.80;99.90
21918;DHT22;11123;49.882;8.662;2022-09-30T00:53:07;8.80;99.90
21918;DHT22;11123;49.882;8.662;2022-09-30T00:55:43;8.90;99.90
21918;DHT22;11123;49.882;8.662;2022-09-30T00:58:16;8.90;99.90
21918;DHT22;11123;49.882;8.662;2022-09-30T01:00:46;8.90;99.90
21918;DHT22;11123;49.882;8.662;2022-09-30T01:03:19;9.00;99.90
21918;DHT22;11123;49.882;8.662;2022-09-30T01:05:50;9.00;99.90
21918;DHT22;11123;49.882;8.662;2022-09-30T01:08:21;9.00;99.90
21918;DHT22;11123;49.882;8.662;2022-09-30T01:10:49;9.00;99.90
21918;DHT22;11123;49.882;8.662;2022-09-30T01:13:19;9.00;99.90
21918;DHT22;11123;49.882;8.662;2022-09-30T01:16:05;9.00;99.90
21918;DHT22;11123;49.882;8.662;2022-09-30T01:18:47;8.90;99.90
21918;DHT22;11123;49.882;8.662;2022-09-30T01:21:40;8.80;99.90
21918;DHT22;11123;49.882;8.662;2022-09-30T01:27:23;8.70;99.90
21918;DHT22;11123;49.882;8.662;2022-09-30T01:30:10;8.70;99.90
21918;DHT22;11123;49.882;8.662;2022-09-30T01:33:01;8.70;99.90
21918;DHT22;11123;49.882;8.662;2022-09-30T01:35:38;8.70;99.90
21918;DHT22;11123;49.882;8.662;2022-09-30T01:38:13;8.70;99.90
21918;DHT22;11123;49.882;8.662;2022-09-30T01:40:47;8.70;99.90
21918;DHT22;11123;49.882;8.662;2022-09-30T01:43:23;8.70;99.90
21918;DHT22;11123;49.882;8.662;2022-09-30T01:45:56;8.80;99.90
21918;DHT22;11123;49.882;8.662;2022-09-30T01:48:34;8.80;99.90
21918;DHT22;11123;49.882;8.662;2022-09-30T01:51:08;8.80;99.90
21918;DHT22;11123;49.882;8.662;2022-09-30T01:53:40;8.80;99.90
21918;DHT22;11123;49.882;8.662;2022-09-30T01:56:16;8.80;99.90
21918;DHT22;11123;49.882;8.662;2022-09-30T01:58:51;8.90;99.90
21918;DHT22;11123;49.882;8.662;2022-09-30T02:01:26;8.90;99.90
21918;DHT22;11123;49.882;8.662;2022-09-30T02:04:02;9.00;99.90
21918;DHT22;11123;49.882;8.662;2022-09-30T02:06:37;9.00;99.90
21918;DHT22;11123;49.882;8.662;2022-09-30T02:09:12;9.10;99.90
21918;DHT22;11123;49.882;8.662;2022-09-30T02:11:42;9.10;99.90
21918;DHT22;11123;49.882;8.662;2022-09-30T02:14:15;9.10;99.90
21918;DHT22;11123;49.882;8.662;2022-09-30T02:16:49;9.00;99.90
21918;DHT22;11123;49.882;8.662;2022-09-30T02:19:25;8.90;99.90
21918;DHT22;11123;49.882;8.662;2022-09-30T02:21:59;8.90;99.90
21918;DHT22;11123;49.882;8.662;2022-09-30T02:24:30;8.80;99.90
21918;DHT22;11123;49.882;8.662;2022-09-30T02:27:04;8.90;99.90
21918;DHT22;11123;49.882;8.662;2022-09-30T02:29:38;8.80;99.90
21918;DHT22;11123;49.882;8.662;2022-09-30T02:32:12;8.80;99.90
21918;DHT22;11123;49.882;8.662;2022-09-30T02:34:46;8.80;99.90
21918;DHT22;11123;49.882;8.662;2022-09-30T02:37:19;8.80;99.90
21918;DHT22;11123;49.882;8.662;2022-09-30T02:39:51;8.80;99.90
21918;DHT22;11123;49.882;8.662;2022-09-30T02:42:23;8.80;99.90
21918;DHT22;11123;49.882;8.662;2022-09-30T02:44:53;8.80;99.90
21918;DHT22;11123;49.882;8.662;2022-09-30T02:47:27;8.90;99.90
21918;DHT22;11123;49.882;8.662;2022-09-30T02:50:03;8.90;99.90
21918;DHT22;11123;49.882;8.662;2022-09-30T02:52:43;8.90;99.90
21918;DHT22;11123;49.882;8.662;2022-09-30T02:55:18;8.80;99.90
21918;DHT22;11123;49.882;8.662;2022-09-30T02:57:55;8.80;99.90
21918;DHT22;11123;49.882;8.662;2022-09-30T03:00:25;8.70;99.90
21918;DHT22;11123;49.882;8.662;2022-09-30T03:02:58;8.60;99.90
21918;DHT22;11123;49.882;8.662;2022-09-30T03:05:29;8.50;99.90
21918;DHT22;11123;49.882;8.662;2022-09-30T03:07:58;8.40;99.90
21918;DHT22;11123;49.882;8.662;2022-09-30T03:10:28;8.40;99.90
21918;DHT22;11123;49.882;8.662;2022-09-30T03:13:14;8.40;99.90
21918;DHT22;11123;49.882;8.662;2022-09-30T03:15:57;8.40;99.90
21918;DHT22;11123;49.882;8.662;2022-09-30T03:18:44;8.30;99.90
21918;DHT22;11123;49.882;8.662;2022-09-30T03:21:32;8.30;99.90
21918;DHT22;11123;49.882;8.662;2022-09-30T03:27:15;8.20;99.90
21918;DHT22;11123;49.882;8.662;2022-09-30T03:29:50;8.20;99.90
21918;DHT22;11123;49.882;8.662;2022-09-30T03:32:36;8.10;99.90
21918;DHT22;11123;49.882;8.662;2022-09-30T03:35:16;8.10;99.90
21918;DHT22;11123;49.882;8.662;2022-09-30T03:37:52;8.00;99.90
21918;DHT22;11123;49.882;8.662;2022-09-30T03:40:29;7.90;99.90
21918;DHT22;11123;49.882;8.662;2022-09-30T03:43:05;7.80;99.90
21918;DHT22;11123;49.882;8.662;2022-09-30T03:45:40;7.70;99.90
21918;DHT22;11123;49.882;8.662;2022-09-30T03:48:14;7.70;99.90
21918;DHT22;11123;49.882;8.662;2022-09-30T03:50:43;7.70;99.90
21918;DHT22;11123;49.882;8.662;2022-09-30T03:53:13;7.80;99.90
21918;DHT22;11123;49.882;8.662;2022-09-30T03:55:45;7.70;99.90
21918;DHT22;11123;49.882;8.662;2022-09-30T03:58:15;7.70;99.90
21918;DHT22;11123;49.882;8.662;2022-09-30T04:00:47;7.70;99.90
21918;DHT22;11123;49.882;8.662;2022-09-30T04:03:17;7.70;99.90
21918;DHT22;11123;49.882;8.662;2022-09-30T04:05:46;7.70;99.90
21918;DHT22;11123;49.882;8.662;2022-09-30T04:08:16;7.60;99.90
21918;DHT22;11123;49.882;8.662;2022-09-30T04:10:44;7.60;99.90
21918;DHT22;11123;49.882;8.662;2022-09-30T04:13:12;7.60;99.90
21918;DHT22;11123;49.882;8.662;2022-09-30T04:15:41;7.60;99.90
21918;DHT22;11123;49.882;8.662;2022-09-30T04:18:09;7.60;99.90
21918;DHT22;11123;49.882;8.662;2022-09-30T04:20:38;7.70;99.90
21918;DHT22;11123;49.882;8.662;2022-09-30T04:23:06;7.60;99.90
21918;DHT22;11123;49.882;8.662;2022-09-30T04:25:36;7.60;99.90
21918;DHT22;11123;49.882;8.662;2022-09-30T04:28:04;7.50;99.90
21918;DHT22;11123;49.882;8.662;2022-09-30T04:30:33;7.50;99.90
21918;DHT22;11123;49.882;8.662;2022-09-30T04:33:01;7.50;99.90
21918;DHT22;11123;49.882;8.662;2022-09-30T04:35:29;7.40;99.90
21918;DHT22;11123;49.882;8.662;2022-09-30T04:37:58;7.40;99.90
21918;DHT22;11123;49.882;8.662;2022-09-30T04:40:27;7.20;99.90
21918;DHT22;11123;49.882;8.662;2022-09-30T04:42:56;7.20;99.90
21918;DHT22;11123;49.882;8.662;2022-09-30T04:45:25;7.10;99.90
21918;DHT22;11123;49.882;8.662;2022-09-30T04:47:53;7.10;99.90
21918;DHT22;11123;49.882;8.662;2022-09-30T04:50:22;7.00;99.90
21918;DHT22;11123;49.882;8.662;2022-09-30T04:52:51;7.00;99.90
21918;DHT22;11123;49.882;8.662;2022-09-30T04:55:21;7.10;99.90
21918;DHT22;11123;49.882;8.662;2022-09-30T04:57:50;7.10;99.90
21918;DHT22;11123;49.882;8.662;2022-09-30T05:00:20;7.10;99.90
21918;DHT22;11123;49.882;8.662;2022-09-30T05:02:51;7.10;99.90
21918;DHT22;11123;49.882;8.662;2022-09-30T05:05:19;7.10;99.90
21918;DHT22;11123;49.882;8.662;2022-09-30T05:07:48;7.10;99.90
21918;DHT22;11123;49.882;8.662;2022-09-30T05:10:16;7.10;99.90
21918;DHT22;11123;49.882;8.662;2022-09-30T05:12:45;7.10;99.90
21918;DHT22;11123;49.882;8.662;2022-09-30T05:15:13;7.10;99.90
21918;DHT22;11123;49.882;8.662;2022-09-30T05:17:42;7.00;99.90
21918;DHT22;11123;49.882;8.662;2022-09-30T05:20:11;7.00;99.90
21918;DHT22;11123;49.882;8.662;2022-09-30T05:22:45;6.90;99.90
21918;DHT22;11123;49.882;8.662;2022-09-30T05:25:13;6.80;99.90
21918;DHT22;11123;49.882;8.662;2022-09-30T05:27:41;6.80;99.90
21918;DHT22;11123;49.882;8.662;2022-09-30T05:30:10;6.70;99.90
21918;DHT22;11123;49.882;8.662;2022-09-30T05:32:38;6.70;99.90
21918;DHT22;11123;49.882;8.662;2022-09-30T05:35:08;6.70;99.90
21918;DHT22;11123;49.882;8.662;2022-09-30T05:37:38;6.70;99.90
21918;DHT22;11123;49.882;8.662;2022-09-30T05:40:07;6.70;99.90
21918;DHT22;11123;49.882;8.662;2022-09-30T05:42:36;6.60;99.90
21918;DHT22;11123;49.882;8.662;2022-09-30T05:45:05;6.60;99.90
21918;DHT22;11123;49.882;8.662;2022-09-30T05:47:33;6.60;99.90
21918;DHT22;11123;49.882;8.662;2022-09-30T05:50:02;6.50;99.90
21918;DHT22;11123;49.882;8.662;2022-09-30T05:52:32;6.50;99.90
21918;DHT22;11123;49.882;8.662;2022-09-30T05:55:00;6.40;99.90
21918;DHT22;11123;49.882;8.662;2022-09-30T05:57:29;6.40;99.90
21918;DHT22;11123;49.882;8.662;2022-09-30T05:59:57;6.40;99.90
21918;DHT22;11123;49.882;8.662;2022-09-30T06:02:26;6.40;99.90
21918;DHT22;11123;49.882;8.662;2022-09-30T06:04:55;6.50;99.90
21918;DHT22;11123;49.882;8.662;2022-09-30T06:07:23;6.50;99.90
21918;DHT22;11123;49.882;8.662;2022-09-30T06:09:53;6.50;99.90
21918;DHT22;11123;49.882;8.662;2022-09-30T06:12:22;6.50;99.90
21918;DHT22;11123;49.882;8.662;2022-09-30T06:14:53;6.50;99.90
21918;DHT22;11123;49.882;8.662;2022-09-30T06:17:21;6.50;99.90
21918;DHT22;11123;49.882;8.662;2022-09-30T06:19:50;6.50;99.90
21918;DHT22;11123;49.882;8.662;2022-09-30T06:22:18;6.50;99.90
21918;DHT22;11123;49.882;8.662;2022-09-30T06:24:46;6.60;99.90
21918;DHT22;11123;49.882;8.662;2022-09-30T06:27:22;6.60;99.90
21918;DHT22;11123;49.882;8.662;2022-09-30T06:29:51;6.60;99.90
21918;DHT22;11123;49.882;8.662;2022-09-30T06:32:19;6.60;99.90
21918;DHT22;11123;49.882;8.662;2022-09-30T06:34:47;6.60;99.90
21918;DHT22;11123;49.882;8.662;2022-09-30T06:37:16;6.70;99.90
21918;DHT22;11123;49.882;8.662;2022-09-30T06:39:45;6.70;99.90
21918;DHT22;11123;49.882;8.662;2022-09-30T06:42:13;6.70;99.90
21918;DHT22;11123;49.882;8.662;2022-09-30T06:44:42;6.80;99.90
21918;DHT22;11123;49.882;8.662;2022-09-30T06:47:19;6.80;99.90
21918;DHT22;11123;49.882;8.662;2022-09-30T06:49:52;6.90;99.90
21918;DHT22;11123;49.882;8.662;2022-09-30T06:52:25;6.90;99.90
21918;DHT22;11123;49.882;8.662;2022-09-30T06:54:53;6.90;99.90
21918;DHT22;11123;49.882;8.662;2022-09-30T06:57:23;7.00;99.90
21918;DHT22;11123;49.882;8.662;2022-09-30T06:59:55;7.00;99.90
21918;DHT22;11123;49.882;8.662;2022-09-30T07:02:23;6.90;99.90
21918;DHT22;11123;49.882;8.662;2022-09-30T07:04:51;6.90;99.90
21918;DHT22;11123;49.882;8.662;2022-09-30T07:07:20;7.00;99.90
21918;DHT22;11123;49.882;8.662;2022-09-30T07:09:48;7.10;99.90
21918;DHT22;11123;49.882;8.662;2022-09-30T07:12:17;7.10;99.90
21918;DHT22;11123;49.882;8.662;2022-09-30T07:14:46;7.20;99.90
21918;DHT22;11123;49.882;8.662;2022-09-30T07:17:15;7.30;99.90
21918;DHT22;11123;49.882;8.662;2022-09-30T07:19:44;7.40;99.90
21918;DHT22;11123;49.882;8.662;2022-09-30T07:22:12;7.50;99.90
21918;DHT22;11123;49.882;8.662;2022-09-30T07:24:59;7.50;99.90
21918;DHT22;11123;49.882;8.662;2022-09-30T07:27:28;7.70;99.90
21918;DHT22;11123;49.882;8.662;2022-09-30T07:29:58;7.80;99.90
21918;DHT22;11123;49.882;8.662;2022-09-30T07:32:38;7.90;99.90
21918;DHT22;11123;49.882;8.662;2022-09-30T07:35:07;8.10;99.90
21918;DHT22;11123;49.882;8.662;2022-09-30T07:37:35;8.20;99.90
21918;DHT22;11123;49.882;8.662;2022-09-30T07:40:05;8.30;99.90
21918;DHT22;11123;49.882;8.662;2022-09-30T07:42:36;8.50;99.90
21918;DHT22;11123;49.882;8.662;2022-09-30T07:45:05;8.70;99.90
21918;DHT22;11123;49.882;8.662;2022-09-30T07:47:34;8.70;99.90
21918;DHT22;11123;49.882;8.662;2022-09-30T07:50:04;8.90;99.90
21918;DHT22;11123;49.882;8.662;2022-09-30T07:52:35;9.00;99.90
21918;DHT22;11123;49.882;8.662;2022-09-30T07:55:04;9.10;99.90
21918;DHT22;11123;49.882;8.662;2022-09-30T07:57:32;9.20;99.90
21918;DHT22;11123;49.882;8.662;2022-09-30T08:00:01;9.30;99.90
21918;DHT22;11123;49.882;8.662;2022-09-30T08:02:50;9.40;99.90
21918;DHT22;11123;49.882;8.662;2022-09-30T08:05:19;9.50;99.90
21918;DHT22;11123;49.882;8.662;2022-09-30T08:07:48;9.50;99.90
21918;DHT22;11123;49.882;8.662;2022-09-30T08:10:16;9.50;99.90
21918;DHT22;11123;49.882;8.662;2022-09-30T08:12:46;9.60;99.90
21918;DHT22;11123;49.882;8.662;2022-09-30T08:15:14;9.70;99.90
21918;DHT22;11123;49.882;8.662;2022-09-30T08:17:43;9.80;99.90
21918;DHT22;11123;49.882;8.662;2022-09-30T08:20:11;9.90;99.90
21918;DHT22;11123;49.882;8.662;2022-09-30T08:22:46;10.00;99.90
21918;DHT22;11123;49.882;8.662;2022-09-30T08:25:14;10.10;99.90
21918;DHT22;11123;49.882;8.662;2022-09-30T08:27:42;10.20;99.90
21918;DHT22;11123;49.882;8.662;2022-09-30T08:30:11;10.30;99.90
21918;DHT22;11123;49.882;8.662;2022-09-30T08:32:39;10.40;99.90
21918;DHT22;11123;49.882;8.662;2022-09-30T08:35:08;10.40;99.90
21918;DHT22;11123;49.882;8.662;2022-09-30T08:37:36;10.60;99.90
21918;DHT22;11123;49.882;8.662;2022-09-30T08:40:13;10.70;99.90
21918;DHT22;11123;49.882;8.662;2022-09-30T08:42:57;10.80;99.90
21918;DHT22;11123;49.882;8.662;2022-09-30T08:45:36;10.90;99.90
21918;DHT22;11123;49.882;8.662;2022-09-30T08:48:18;11.00;99.90
21918;DHT22;11123;49.882;8.662;2022-09-30T08:50:55;11.10;99.90
21918;DHT22;11123;49.882;8.662;2022-09-30T08:53:29;11.20;99.90
21918;DHT22;11123;49.882;8.662;2022-09-30T08:56:00;11.30;99.90
21918;DHT22;11123;49.882;8.662;2022-09-30T08:58:34;11.30;99.90
21918;DHT22;11123;49.882;8.662;2022-09-30T09:01:12;11.40;99.90
21918;DHT22;11123;49.882;8.662;2022-09-30T09:03:42;11.50;99.90
21918;DHT22;11123;49.882;8.662;2022-09-30T09:06:19;11.50;99.90
21918;DHT22;11123;49.882;8.662;2022-09-30T09:09:08;11.60;99.90
21918;DHT22;11123;49.882;8.662;2022-09-30T09:12:06;11.70;99.90
21918;DHT22;11123;49.882;8.662;2022-09-30T09:14:49;11.80;99.90
21918;DHT22;11123;49.882;8.662;2022-09-30T09:17:31;11.90;99.90
21918;DHT22;11123;49.882;8.662;2022-09-30T09:20:12;11.90;99.90
21918;DHT22;11123;49.882;8.662;2022-09-30T09:22:40;12.00;99.90
21918;DHT22;11123;49.882;8.662;2022-09-30T09:25:13;12.00;99.90
21918;DHT22;11123;49.882;8.662;2022-09-30T09:27:50;12.10;99.90
21918;DHT22;11123;49.882;8.662;2022-09-30T09:30:21;12.20;99.90
21918;DHT22;11123;49.882;8.662;2022-09-30T09:32:53;12.20;99.90
21918;DHT22;11123;49.882;8.662;2022-09-30T09:35:34;12.30;99.90
21918;DHT22;11123;49.882;8.662;2022-09-30T09:38:11;12.40;99.90
21918;DHT22;11123;49.882;8.662;2022-09-30T09:41:06;12.50;99.90
21918;DHT22;11123;49.882;8.662;2022-09-30T09:43:50;12.50;99.90
21918;DHT22;11123;49.882;8.662;2022-09-30T09:46:25;12.70;99.90
21918;DHT22;11123;49.882;8.662;2022-09-30T09:49:28;12.80;99.90
21918;DHT22;11123;49.882;8.662;2022-09-30T09:52:19;12.80;99.90
21918;DHT22;11123;49.882;8.662;2022-09-30T09:54:52;12.90;96.70
21918;DHT22;11123;49.882;8.662;2022-09-30T09:57:24;13.00;99.50
21918;DHT22;11123;49.882;8.662;2022-09-30T09:59:56;13.00;89.40
21918;DHT22;11123;49.882;8.662;2022-09-30T10:02:32;13.10;82.50
21918;DHT22;11123;49.882;8.662;2022-09-30T10:05:00;13.20;87.50
21918;DHT22;11123;49.882;8.662;2022-09-30T10:07:31;13.30;82.20
21918;DHT22;11123;49.882;8.662;2022-09-30T10:10:17;13.40;84.90
21918;DHT22;11123;49.882;8.662;2022-09-30T10:12:50;13.50;62.70
21918;DHT22;11123;49.882;8.662;2022-09-30T10:15:24;13.60;65.30
21918;DHT22;11123;49.882;8.662;2022-09-30T10:17:53;13.60;49.60
21918;DHT22;11123;49.882;8.662;2022-09-30T10:20:29;13.70;42.90
21918;DHT22;11123;49.882;8.662;2022-09-30T10:23:08;13.80;39.00
21918;DHT22;11123;49.882;8.662;2022-09-30T10:25:37;13.90;28.10
21918;DHT22;11123;49.882;8.662;2022-09-30T10:28:21;14.00;25.50
21918;DHT22;11123;49.882;8.662;2022-09-30T10:30:57;14.00;11.70
21918;DHT22;11123;49.882;8.662;2022-09-30T10:33:29;14.00;15.30
21918;DHT22;11123;49.882;8.662;2022-09-30T10:36:07;14.10;16.70
21918;DHT22;11123;49.882;8.662;2022-09-30T10:38:43;14.00;11.50
21918;DHT22;11123;49.882;8.662;2022-09-30T10:41:12;14.00;7.70
21918;DHT22;11123;49.882;8.662;2022-09-30T10:43:43;14.00;14.10
21918;DHT22;11123;49.882;8.662;2022-09-30T10:46:21;13.90;10.80
21918;DHT22;11123;49.882;8.662;2022-09-30T10:48:54;14.00;3.40
21918;DHT22;11123;49.882;8.662;2022-09-30T10:51:32;14.20;1.00
21918;DHT22;11123;49.882;8.662;2022-09-30T10:54:03;14.60;1.00
21918;DHT22;11123;49.882;8.662;2022-09-30T10:56:39;14.70;1.00
21918;DHT22;11123;49.882;8.662;2022-09-30T10:59:31;14.90;1.00
21918;DHT22;11123;49.882;8.662;2022-09-30T11:02:21;14.80;1.00
21918;DHT22;11123;49.882;8.662;2022-09-30T11:04:58;14.60;1.00
21918;DHT22;11123;49.882;8.662;2022-09-30T11:07:31;14.50;1.00
21918;DHT22;11123;49.882;8.662;2022-09-30T11:10:07;14.80;1.00
21918;DHT22;11123;49.882;8.662;2022-09-30T11:12:43;15.10;1.00
21918;DHT22;11123;49.882;8.662;2022-09-30T11:15:18;15.60;1.00
21918;DHT22;11123;49.882;8.662;2022-09-30T11:17:53;15.90;1.00
21918;DHT22;11123;49.882;8.662;2022-09-30T11:20:27;16.00;1.00
21918;DHT22;11123;49.882;8.662;2022-09-30T11:23:00;16.20;1.00
21918;DHT22;11123;49.882;8.662;2022-09-30T11:25:39;16.30;1.00
21918;DHT22;11123;49.882;8.662;2022-09-30T11:28:26;16.50;1.00
21918;DHT22;11123;49.882;8.662;2022-09-30T11:31:03;17.20;1.00
21918;DHT22;11123;49.882;8.662;2022-09-30T11:33:47;17.50;1.00
21918;DHT22;11123;49.882;8.662;2022-09-30T11:36:23;18.20;1.00
21918;DHT22;11123;49.882;8.662;2022-09-30T11:39:16;18.80;1.00
21918;DHT22;11123;49.882;8.662;2022-09-30T11:41:52;18.60;1.00
21918;DHT22;11123;49.882;8.662;2022-09-30T11:44:32;18.10;1.00
21918;DHT22;11123;49.882;8.662;2022-09-30T11:47:27;18.50;1.00
21918;DHT22;11123;49.882;8.662;2022-09-30T11:50:28;18.90;1.00
21918;DHT22;11123;49.882;8.662;2022-09-30T11:53:09;17.80;1.00
21918;DHT22;11123;49.882;8.662;2022-09-30T11:55:54;17.50;1.00
21918;DHT22;11123;49.882;8.662;2022-09-30T11:58:31;16.80;1.00
21918;DHT22;11123;49.882;8.662;2022-09-30T12:01:15;17.00;1.00
21918;DHT22;11123;49.882;8.662;2022-09-30T12:03:51;17.60;1.00
21918;DHT22;11123;49.882;8.662;2022-09-30T12:06:27;17.20;1.00
21918;DHT22;11123;49.882;8.662;2022-09-30T12:09:02;16.90;1.00
21918;DHT22;11123;49.882;8.662;2022-09-30T12:11:36;17.80;1.00
21918;DHT22;11123;49.882;8.662;2022-09-30T12:14:12;18.20;1.00
21918;DHT22;11123;49.882;8.662;2022-09-30T12:16:45;17.40;1.00
21918;DHT22;11123;49.882;8.662;2022-09-30T12:19:16;17.20;1.00
21918;DHT22;11123;49.882;8.662;2022-09-30T12:21:57;17.20;1.00
21918;DHT22;11123;49.882;8.662;2022-09-30T12:24:31;17.50;1.00
21918;DHT22;11123;49.882;8.662;2022-09-30T12:27:02;17.70;1.00
21918;DHT22;11123;49.882;8.662;2022-09-30T12:29:34;17.70;1.00
21918;DHT22;11123;49.882;8.662;2022-09-30T12:36:08;18.20;1.00
21918;DHT22;11123;49.882;8.662;2022-09-30T12:39:00;18.40;1.00
21918;DHT22;11123;49.882;8.662;2022-09-30T12:41:46;17.90;1.00
21918;DHT22;11123;49.882;8.662;2022-09-30T12:44:48;17.10;1.00
21918;DHT22;11123;49.882;8.662;2022-09-30T12:47:31;17.00;1.00
21918;DHT22;11123;49.882;8.662;2022-09-30T12:50:06;17.20;1.00
21918;DHT22;11123;49.882;8.662;2022-09-30T12:52:36;17.90;1.00
21918;DHT22;11123;49.882;8.662;2022-09-30T12:55:12;17.80;1.00
21918;DHT22;11123;49.882;8.662;2022-09-30T12:57:46;17.60;1.00
21918;DHT22;11123;49.882;8.662;2022-09-30T13:00:17;17.60;1.00
21918;DHT22;11123;49.882;8.662;2022-09-30T13:02:52;18.70;1.00
21918;DHT22;11123;49.882;8.662;2022-09-30T13:05:49;19.80;1.00
21918;DHT22;11123;49.882;8.662;2022-09-30T13:08:30;20.10;99.90
21918;DHT22;11123;49.882;8.662;2022-09-30T13:11:05;19.10;99.90
21918;DHT22;11123;49.882;8.662;2022-09-30T13:14:10;18.80;99.90
21918;DHT22;11123;49.882;8.662;2022-09-30T13:19:46;18.70;99.90
21918;DHT22;11123;49.882;8.662;2022-09-30T13:25:19;18.40;1.00
21918;DHT22;11123;49.882;8.662;2022-09-30T13:27:50;18.50;1.00
21918;DHT22;11123;49.882;8.662;2022-09-30T13:30:40;17.60;1.00
21918;DHT22;11123;49.882;8.662;2022-09-30T13:33:29;17.80;1.00
21918;DHT22;11123;49.882;8.662;2022-09-30T13:36:05;18.10;1.00
21918;DHT22;11123;49.882;8.662;2022-09-30T13:38:38;18.10;1.00
21918;DHT22;11123;49.882;8.662;2022-09-30T13:41:13;17.90;1.00
21918;DHT22;11123;49.882;8.662;2022-09-30T13:43:46;17.90;1.00
21918;DHT22;11123;49.882;8.662;2022-09-30T13:46:23;17.90;1.00
21918;DHT22;11123;49.882;8.662;2022-09-30T13:48:59;17.70;1.00
21918;DHT22;11123;49.882;8.662;2022-09-30T13:51:30;17.70;1.00
21918;DHT22;11123;49.882;8.662;2022-09-30T13:54:04;17.70;1.00
21918;DHT22;11123;49.882;8.662;2022-09-30T13:56:37;17.50;1.00
21918;DHT22;11123;49.882;8.662;2022-09-30T13:59:29;17.70;1.00
21918;DHT22;11123;49.882;8.662;2022-09-30T14:02:26;17.80;1.00
21918;DHT22;11123;49.882;8.662;2022-09-30T14:05:11;17.80;1.00
21918;DHT22;11123;49.882;8.662;2022-09-30T14:07:50;17.80;1.00
21918;DHT22;11123;49.882;8.662;2022-09-30T14:10:36;17.60;1.00
21918;DHT22;11123;49.882;8.662;2022-09-30T14:13:17;17.00;1.00
21918;DHT22;11123;49.882;8.662;2022-09-30T14:16:09;16.90;1.00
21918;DHT22;11123;49.882;8.662;2022-09-30T14:21:37;16.70;1.00
21918;DHT22;11123;49.882;8.662;2022-09-30T14:24:10;16.70;1.00
21918;DHT22;11123;49.882;8.662;2022-09-30T14:27:15;16.70;1.00
21918;DHT22;11123;49.882;8.662;2022-09-30T14:29:52;16.80;1.00
21918;DHT22;11123;49.882;8.662;2022-09-30T14:32:27;16.60;1.00
21918;DHT22;11123;49.882;8.662;2022-09-30T14:34:59;16.50;1.00
21918;DHT22;11123;49.882;8.662;2022-09-30T14:37:34;16.40;1.00
21918;DHT22;11123;49.882;8.662;2022-09-30T14:40:08;16.30;1.00
21918;DHT22;11123;49.882;8.662;2022-09-30T14:42:40;16.20;1.00
21918;DHT22;11123;49.882;8.662;2022-09-30T14:45:18;16.20;1.00
21918;DHT22;11123;49.882;8.662;2022-09-30T14:47:50;16.10;1.00
21918;DHT22;11123;49.882;8.662;2022-09-30T14:50:22;16.10;1.00
21918;DHT22;11123;49.882;8.662;2022-09-30T14:52:52;16.10;1.00
21918;DHT22;11123;49.882;8.662;2022-09-30T14:55:26;16.00;1.00
21918;DHT22;11123;49.882;8.662;2022-09-30T15:00:39;16.10;1.00
21918;DHT22;11123;49.882;8.662;2022-09-30T15:03:10;16.10;1.00
21918;DHT22;11123;49.882;8.662;2022-09-30T15:05:41;16.00;1.00
21918;DHT22;11123;49.882;8.662;2022-09-30T15:08:10;16.00;1.00
21918;DHT22;11123;49.882;8.662;2022-09-30T15:10:45;15.90;1.00
21918;DHT22;11123;49.882;8.662;2022-09-30T15:13:15;16.00;1.00
21918;DHT22;11123;49.882;8.662;2022-09-30T15:15:44;16.00;1.00
21918;DHT22;11123;49.882;8.662;2022-09-30T15:18:31;16.00;1.00
21918;DHT22;11123;49.882;8.662;2022-09-30T15:21:07;16.00;1.00
21918;DHT22;11123;49.882;8.662;2022-09-30T15:23:38;15.90;1.00
21918;DHT22;11123;49.882;8.662;2022-09-30T15:26:10;15.90;1.00
21918;DHT22;11123;49.882;8.662;2022-09-30T15:28:39;15.90;1.00
21918;DHT22;11123;49.882;8.662;2022-09-30T15:31:19;15.90;1.00
21918;DHT22;11123;49.882;8.662;2022-09-30T15:34:02;15.90;1.00
21918;DHT22;11123;49.882;8.662;2022-09-30T15:36:33;15.90;1.00
21918;DHT22;11123;49.882;8.662;2022-09-30T15:39:04;15.90;1.00
21918;DHT22;11123;49.882;8.662;2022-09-30T15:41:38;16.00;1.00
21918;DHT22;11123;49.882;8.662;2022-09-30T15:44:15;16.00;1.00
21918;DHT22;11123;49.882;8.662;2022-09-30T15:47:01;16.00;1.00
21918;DHT22;11123;49.882;8.662;2022-09-30T15:49:32;16.10;1.00
21918;DHT22;11123;49.882;8.662;2022-09-30T15:52:29;16.00;1.00
21918;DHT22;11123;49.882;8.662;2022-09-30T15:55:34;15.90;1.00
21918;DHT22;11123;49.882;8.662;2022-09-30T15:58:04;15.80;1.00
21918;DHT22;11123;49.882;8.662;2022-09-30T16:00:52;15.80;1.00
21918;DHT22;11123;49.882;8.662;2022-09-30T16:03:35;15.90;1.00
21918;DHT22;11123;49.882;8.662;2022-09-30T16:06:05;15.90;1.00
21918;DHT22;11123;49.882;8.662;2022-09-30T16:08:41;15.90;1.00
21918;DHT22;11123;49.882;8.662;2022-09-30T16:11:17;15.80;1.00
21918;DHT22;11123;49.882;8.662;2022-09-30T16:13:47;15.90;1.00
21918;DHT22;11123;49.882;8.662;2022-09-30T16:16:19;15.90;1.00
21918;DHT22;11123;49.882;8.662;2022-09-30T16:18:49;15.80;1.00
21918;DHT22;11123;49.882;8.662;2022-09-30T16:21:38;15.70;1.00
21918;DHT22;11123;49.882;8.662;2022-09-30T16:24:42;15.80;1.00
21918;DHT22;11123;49.882;8.662;2022-09-30T16:27:28;15.80;1.00
21918;DHT22;11123;49.882;8.662;2022-09-30T16:29:59;15.80;1.00
21918;DHT22;11123;49.882;8.662;2022-09-30T16:32:35;15.70;1.00
21918;DHT22;11123;49.882;8.662;2022-09-30T16:35:05;15.70;1.00
21918;DHT22;11123;49.882;8.662;2022-09-30T16:37:34;15.70;1.00
21918;DHT22;11123;49.882;8.662;2022-09-30T16:40:14;15.60;1.00
21918;DHT22;11123;49.882;8.662;2022-09-30T16:42:43;15.60;1.00
21918;DHT22;11123;49.882;8.662;2022-09-30T16:45:11;15.50;1.00
21918;DHT22;11123;49.882;8.662;2022-09-30T16:47:41;15.50;1.00
21918;DHT22;11123;49.882;8.662;2022-09-30T16:50:20;15.50;1.00
21918;DHT22;11123;49.882;8.662;2022-09-30T16:52:49;15.50;1.00